sensor_id;sensor_type;location;lat;lon;timestamp;pressure;altitude;pressure_sealevel;temperature;humidity
38806;BME280;25635;51.146;17.162;2022-10-29T00:00:51;100643.63;;;11.06;85.73
38806;BME280;25635;51.146;17.162;2022-10-29T00:03:20;100641.03;;;11.01;85.57
38806;BME280;25635;51.146;17.162;2022-10-29T00:05:58;100630.59;;;10.98;85.68
38806;BME280;25635;51.146;17.162;2022-10-29T00:08:27;100633.20;;;10.95;86.04
38806;BME280;25635;51.146;17.162;2022-10-29T00:10:55;100633.22;;;10.92;85.77
38806;BME280;25635;51.146;17.162;2022-10-29T00:13:21;100632.35;;;10.90;86.00
38806;BME280;25635;51.146;17.162;2022-10-29T00:15:49;100634.08;;;10.91;86.60
38806;BME280;25635;51.146;17.162;2022-10-29T00:18:20;100638.01;;;10.92;86.29
38806;BME280;25635;51.146;17.162;2022-10-29T00:21:01;100645.41;;;10.93;86.58
38806;BME280;25635;51.146;17.162;2022-10-29T00:23:31;100643.24;;;10.92;86.45
38806;BME280;25635;51.146;17.162;2022-10-29T00:25:58;100645.41;;;10.93;86.32
38806;BME280;25635;51.146;17.162;2022-10-29T00:28:26;100643.23;;;10.89;86.03
38806;BME280;25635;51.146;17.162;2022-10-29T00:30:53;100642.39;;;10.86;86.43
38806;BME280;25635;51.146;17.162;2022-10-29T00:33:20;100647.17;;;10.83;86.29
38806;BME280;25635;51.146;17.162;2022-10-29T00:35:58;100647.19;;;10.79;86.20
38806;BME280;25635;51.146;17.162;2022-10-29T00:38:26;100643.70;;;10.78;86.16
38806;BME280;25635;51.146;17.162;2022-10-29T00:40:54;100634.13;;;10.75;86.21
38806;BME280;25635;51.146;17.162;2022-10-29T00:43:22;100632.36;;;10.74;86.32
38806;BME280;25635;51.146;17.162;2022-10-29T00:45:54;100627.58;;;10.75;86.43
38806;BME280;25635;51.146;17.162;2022-10-29T00:48:29;100625.84;;;10.78;86.67
38806;BME280;25635;51.146;17.162;2022-10-29T00:51:04;100627.14;;;10.76;86.47
38806;BME280;25635;51.146;17.162;2022-10-29T00:53:35;100625.38;;;10.77;86.54
38806;BME280;25635;51.146;17.162;2022-10-29T00:56:03;100621.90;;;10.74;86.80
38806;BME280;25635;51.146;17.162;2022-10-29T00:58:31;100621.48;;;10.75;86.42
38806;BME280;25635;51.146;17.162;2022-10-29T01:00:57;100619.72;;;10.72;86.88
38806;BME280;25635;51.146;17.162;2022-10-29T01:03:24;100620.19;;;10.69;86.70
38806;BME280;25635;51.146;17.162;2022-10-29T01:05:52;100621.04;;;10.66;86.67
38806;BME280;25635;51.146;17.162;2022-10-29T01:08:22;100618.88;;;10.67;86.90
38806;BME280;25635;51.146;17.162;2022-10-29T01:14:05;100625.84;;;10.70;86.92
38806;BME280;25635;51.146;17.162;2022-10-29T01:17:06;100625.84;;;10.71;87.04
38806;BME280;25635;51.146;17.162;2022-10-29T01:31:36;100628.45;;;10.76;87.60
38806;BME280;25635;51.146;17.162;2022-10-29T01:34:12;100628.02;;;10.80;87.92
38806;BME280;25635;51.146;17.162;2022-10-29T01:47:35;100625.80;;;10.96;87.88
38806;BME280;25635;51.146;17.162;2022-10-29T01:50:07;100623.18;;;10.96;87.74
38806;BME280;25635;51.146;17.162;2022-10-29T01:52:36;100626.63;;;11.00;87.73
38806;BME280;25635;51.146;17.162;2022-10-29T01:57:33;100626.63;;;11.07;87.86
38806;BME280;25635;51.146;17.162;2022-10-29T02:00:07;100627.91;;;11.10;87.68
38806;BME280;25635;51.146;17.162;2022-10-29T02:08:50;100630.04;;;11.25;87.57
38806;BME280;25635;51.146;17.162;2022-10-29T02:14:37;100634.84;;;11.27;87.36
38806;BME280;25635;51.146;17.162;2022-10-29T02:16:55;100627.88;;;11.26;87.39
38806;BME280;25635;51.146;17.162;2022-10-29T02:19:22;100626.12;;;11.26;87.32
38806;BME280;25635;51.146;17.162;2022-10-29T02:21:50;100620.02;;;11.24;87.12
38806;BME280;25635;51.146;17.162;2022-10-29T02:24:16;100611.30;;;11.25;86.90
38806;BME280;25635;51.146;17.162;2022-10-29T02:26:42;100619.58;;;11.28;86.99
38806;BME280;25635;51.146;17.162;2022-10-29T02:29:09;100607.76;;;11.29;87.03
38806;BME280;25635;51.146;17.162;2022-10-29T02:31:35;100608.21;;;11.32;87.07
38806;BME280;25635;51.146;17.162;2022-10-29T02:34:01;100611.24;;;11.31;86.87
38806;BME280;25635;51.146;17.162;2022-10-29T02:36:28;100612.55;;;11.33;87.00
38806;BME280;25635;51.146;17.162;2022-10-29T02:38:54;100605.14;;;11.31;86.82
38806;BME280;25635;51.146;17.162;2022-10-29T02:41:20;100606.93;;;11.27;86.68
38806;BME280;25635;51.146;17.162;2022-10-29T02:43:46;100597.77;;;11.26;86.65
38806;BME280;25635;51.146;17.162;2022-10-29T02:46:21;100596.01;;;11.26;86.60
38806;BME280;25635;51.146;17.162;2022-10-29T02:48:46;100595.14;;;11.26;86.76
38806;BME280;25635;51.146;17.162;2022-10-29T02:51:14;100593.84;;;11.27;86.78
38806;BME280;25635;51.146;17.162;2022-10-29T02:53:41;100585.53;;;11.28;86.73
38806;BME280;25635;51.146;17.162;2022-10-29T02:56:08;100585.09;;;11.30;86.80
38806;BME280;25635;51.146;17.162;2022-10-29T02:58:35;100582.88;;;11.29;86.79
38806;BME280;25635;51.146;17.162;2022-10-29T03:01:02;100585.09;;;11.30;86.72
38806;BME280;25635;51.146;17.162;2022-10-29T03:03:29;100576.78;;;11.29;86.57
38806;BME280;25635;51.146;17.162;2022-10-29T03:05:55;100578.12;;;11.26;86.36
38806;BME280;25635;51.146;17.162;2022-10-29T03:08:22;100587.28;;;11.24;86.42
38806;BME280;25635;51.146;17.162;2022-10-29T03:10:48;100594.70;;;11.25;86.69
38806;BME280;25635;51.146;17.162;2022-10-29T03:13:14;100591.22;;;11.26;86.75
38806;BME280;25635;51.146;17.162;2022-10-29T03:15:42;100591.63;;;11.27;86.62
38806;BME280;25635;51.146;17.162;2022-10-29T03:18:11;100594.25;;;11.30;86.64
38806;BME280;25635;51.146;17.162;2022-10-29T03:20:37;100596.84;;;11.33;86.55
38806;BME280;25635;51.146;17.162;2022-10-29T03:23:04;100595.12;;;11.30;86.73
38806;BME280;25635;51.146;17.162;2022-10-29T03:25:30;100596.42;;;11.29;86.81
38806;BME280;25635;51.146;17.162;2022-10-29T03:27:56;100598.62;;;11.26;86.95
38806;BME280;25635;51.146;17.162;2022-10-29T03:30:23;100609.55;;;11.26;86.78
38806;BME280;25635;51.146;17.162;2022-10-29T03:32:49;100616.09;;;11.24;86.31
38806;BME280;25635;51.146;17.162;2022-10-29T03:35:15;100613.05;;;11.19;86.24
38806;BME280;25635;51.146;17.162;2022-10-29T03:37:42;100615.69;;;11.15;86.30
38806;BME280;25635;51.146;17.162;2022-10-29T03:40:09;100611.31;;;11.14;86.39
38806;BME280;25635;51.146;17.162;2022-10-29T03:42:37;100615.69;;;11.14;86.08
38806;BME280;25635;51.146;17.162;2022-10-29T03:45:04;100610.89;;;11.12;86.18
38806;BME280;25635;51.146;17.162;2022-10-29T03:47:32;100618.75;;;11.12;86.08
38806;BME280;25635;51.146;17.162;2022-10-29T03:49:58;100620.08;;;11.09;86.04
38806;BME280;25635;51.146;17.162;2022-10-29T03:52:24;100614.42;;;11.05;86.22
38806;BME280;25635;51.146;17.162;2022-10-29T03:54:51;100617.06;;;11.00;86.58
38806;BME280;25635;51.146;17.162;2022-10-29T03:57:17;100618.39;;;10.94;86.60
38806;BME280;25635;51.146;17.162;2022-10-29T03:59:43;100612.27;;;10.87;86.75
38806;BME280;25635;51.146;17.162;2022-10-29T04:02:10;100620.16;;;10.86;86.63
38806;BME280;25635;51.146;17.162;2022-10-29T04:04:39;100615.80;;;10.82;86.31
38806;BME280;25635;51.146;17.162;2022-10-29T04:07:05;100626.70;;;10.80;86.61
38806;BME280;25635;51.146;17.162;2022-10-29T04:09:32;100622.33;;;10.77;86.23
38806;BME280;25635;51.146;17.162;2022-10-29T04:11:58;100633.25;;;10.72;86.64
38806;BME280;25635;51.146;17.162;2022-10-29T04:14:26;100636.73;;;10.66;86.53
38806;BME280;25635;51.146;17.162;2022-10-29T04:16:52;100633.25;;;10.58;86.60
38806;BME280;25635;51.146;17.162;2022-10-29T04:19:18;100631.09;;;10.53;86.97
38806;BME280;25635;51.146;17.162;2022-10-29T04:21:45;100639.39;;;10.48;86.85
38806;BME280;25635;51.146;17.162;2022-10-29T04:24:11;100641.99;;;10.45;86.95
38806;BME280;25635;51.146;17.162;2022-10-29T04:26:38;100635.47;;;10.42;87.04
38806;BME280;25635;51.146;17.162;2022-10-29T04:29:07;100646.37;;;10.40;86.80
38806;BME280;25635;51.146;17.162;2022-10-29T04:31:33;100645.48;;;10.36;87.10
38806;BME280;25635;51.146;17.162;2022-10-29T04:33:59;100646.34;;;10.37;87.19
38806;BME280;25635;51.146;17.162;2022-10-29T04:36:26;100649.84;;;10.34;86.96
38806;BME280;25635;51.146;17.162;2022-10-29T04:38:52;100651.13;;;10.31;86.27
38806;BME280;25635;51.146;17.162;2022-10-29T04:41:18;100656.77;;;10.24;86.56
38806;BME280;25635;51.146;17.162;2022-10-29T04:43:45;100657.66;;;10.19;86.56
38806;BME280;25635;51.146;17.162;2022-10-29T04:46:11;100660.69;;;10.15;86.65
38806;BME280;25635;51.146;17.162;2022-10-29T04:48:38;100668.52;;;10.12;86.45
38806;BME280;25635;51.146;17.162;2022-10-29T04:51:04;100659.81;;;10.02;86.38
38806;BME280;25635;51.146;17.162;2022-10-29T04:53:30;100658.47;;;9.98;87.09
38806;BME280;25635;51.146;17.162;2022-10-29T04:56:00;100661.09;;;9.94;87.05
38806;BME280;25635;51.146;17.162;2022-10-29T04:58:28;100662.83;;;9.92;86.96
38806;BME280;25635;51.146;17.162;2022-10-29T05:01:00;100669.79;;;9.90;87.19
38806;BME280;25635;51.146;17.162;2022-10-29T05:03:27;100664.13;;;9.88;87.16
38806;BME280;25635;51.146;17.162;2022-10-29T05:05:54;100668.05;;;9.83;87.01
38806;BME280;25635;51.146;17.162;2022-10-29T05:08:20;100661.06;;;9.79;87.23
38806;BME280;25635;51.146;17.162;2022-10-29T05:10:46;100668.88;;;9.76;87.27
38806;BME280;25635;51.146;17.162;2022-10-29T05:13:15;100668.88;;;9.73;87.30
38806;BME280;25635;51.146;17.162;2022-10-29T05:15:53;100678.02;;;9.71;87.59
38806;BME280;25635;51.146;17.162;2022-10-29T05:18:24;100680.20;;;9.70;87.52
38806;BME280;25635;51.146;17.162;2022-10-29T05:20:54;100681.05;;;9.69;87.59
38806;BME280;25635;51.146;17.162;2022-10-29T05:23:23;100679.31;;;9.67;87.31
38806;BME280;25635;51.146;17.162;2022-10-29T05:25:49;100674.52;;;9.65;87.38
38806;BME280;25635;51.146;17.162;2022-10-29T05:28:19;100678.86;;;9.63;87.72
38806;BME280;25635;51.146;17.162;2022-10-29T05:30:48;100684.95;;;9.60;87.63
38806;BME280;25635;51.146;17.162;2022-10-29T05:33:19;100681.88;;;9.58;87.40
38806;BME280;25635;51.146;17.162;2022-10-29T05:35:47;100684.92;;;9.54;87.63
38806;BME280;25635;51.146;17.162;2022-10-29T05:38:15;100694.03;;;9.51;87.75
38806;BME280;25635;51.146;17.162;2022-10-29T05:40:42;100704.91;;;9.49;87.89
38806;BME280;25635;51.146;17.162;2022-10-29T05:43:11;100698.80;;;9.47;87.94
38806;BME280;25635;51.146;17.162;2022-10-29T05:45:39;100704.91;;;9.46;88.18
38806;BME280;25635;51.146;17.162;2022-10-29T05:48:07;100705.77;;;9.46;88.31
38806;BME280;25635;51.146;17.162;2022-10-29T05:50:35;100709.70;;;9.48;88.69
38806;BME280;25635;51.146;17.162;2022-10-29T05:53:08;100709.69;;;9.49;89.20
38806;BME280;25635;51.146;17.162;2022-10-29T05:55:37;100711.04;;;9.54;89.47
38806;BME280;25635;51.146;17.162;2022-10-29T05:58:13;100708.42;;;9.57;89.43
38806;BME280;25635;51.146;17.162;2022-10-29T06:00:43;100707.57;;;9.61;89.81
38806;BME280;25635;51.146;17.162;2022-10-29T06:03:19;100708.46;;;9.68;90.17
38806;BME280;25635;51.146;17.162;2022-10-29T06:05:48;100708.48;;;9.71;90.49
38806;BME280;25635;51.146;17.162;2022-10-29T06:08:16;100717.63;;;9.74;90.52
38806;BME280;25635;51.146;17.162;2022-10-29T06:10:43;100721.98;;;9.77;90.79
38806;BME280;25635;51.146;17.162;2022-10-29T06:13:15;100726.38;;;9.79;90.87
38806;BME280;25635;51.146;17.162;2022-10-29T06:15:43;100718.09;;;9.83;91.51
38806;BME280;25635;51.146;17.162;2022-10-29T06:18:10;100720.31;;;9.89;91.65
38806;BME280;25635;51.146;17.162;2022-10-29T06:20:38;100716.84;;;9.93;91.82
38806;BME280;25635;51.146;17.162;2022-10-29T06:23:05;100712.05;;;10.04;92.44
38806;BME280;25635;51.146;17.162;2022-10-29T06:25:32;100716.45;;;10.12;92.44
38806;BME280;25635;51.146;17.162;2022-10-29T06:28:10;100712.98;;;10.23;92.63
38806;BME280;25635;51.146;17.162;2022-10-29T06:30:33;100719.98;;;10.33;92.77
38806;BME280;25635;51.146;17.162;2022-10-29T06:33:04;100719.13;;;10.43;92.77
38806;BME280;25635;51.146;17.162;2022-10-29T06:35:40;100720.02;;;10.53;92.85
38806;BME280;25635;51.146;17.162;2022-10-29T06:38:02;100716.95;;;10.64;92.98
38806;BME280;25635;51.146;17.162;2022-10-29T06:40:28;100716.52;;;10.79;93.14
38806;BME280;25635;51.146;17.162;2022-10-29T06:42:58;100725.23;;;10.93;93.31
38806;BME280;25635;51.146;17.162;2022-10-29T06:45:27;100728.27;;;11.08;93.02
38806;BME280;25635;51.146;17.162;2022-10-29T06:47:57;100732.18;;;11.23;92.98
38806;BME280;25635;51.146;17.162;2022-10-29T06:50:28;100736.06;;;11.39;92.77
38806;BME280;25635;51.146;17.162;2022-10-29T06:53:04;100738.20;;;11.51;92.51
38806;BME280;25635;51.146;17.162;2022-10-29T06:55:33;100739.44;;;11.67;92.16
38806;BME280;25635;51.146;17.162;2022-10-29T06:58:06;100740.29;;;11.80;91.72
38806;BME280;25635;51.146;17.162;2022-10-29T07:00:44;100744.20;;;11.89;91.28
38806;BME280;25635;51.146;17.162;2022-10-29T07:03:13;100741.97;;;11.98;90.80
38806;BME280;25635;51.146;17.162;2022-10-29T07:05:41;100747.18;;;12.04;90.59
38806;BME280;25635;51.146;17.162;2022-10-29T07:08:08;100748.02;;;12.09;90.19
38806;BME280;25635;51.146;17.162;2022-10-29T07:10:34;100742.73;;;12.15;90.23
38806;BME280;25635;51.146;17.162;2022-10-29T07:13:01;100746.63;;;12.21;90.09
38806;BME280;25635;51.146;17.162;2022-10-29T07:15:29;100750.53;;;12.32;90.05
38806;BME280;25635;51.146;17.162;2022-10-29T07:18:04;100744.34;;;12.41;90.10
38806;BME280;25635;51.146;17.162;2022-10-29T07:20:38;100736.84;;;12.51;90.01
38806;BME280;25635;51.146;17.162;2022-10-29T07:23:12;100733.23;;;12.64;89.84
38806;BME280;25635;51.146;17.162;2022-10-29T07:25:45;100737.07;;;12.78;89.71
38806;BME280;25635;51.146;17.162;2022-10-29T07:28:21;100735.61;;;12.92;90.00
38806;BME280;25635;51.146;17.162;2022-10-29T07:30:51;100735.05;;;13.08;89.75
38806;BME280;25635;51.146;17.162;2022-10-29T07:33:18;100740.58;;;13.23;89.87
38806;BME280;25635;51.146;17.162;2022-10-29T07:35:45;100745.73;;;13.36;89.63
38806;BME280;25635;51.146;17.162;2022-10-29T07:38:12;100742.08;;;13.50;89.64
38806;BME280;25635;51.146;17.162;2022-10-29T07:40:44;100743.19;;;13.67;89.33
38806;BME280;25635;51.146;17.162;2022-10-29T07:43:14;100737.77;;;13.81;89.07
38806;BME280;25635;51.146;17.162;2022-10-29T07:45:45;100737.11;;;13.96;88.53
38806;BME280;25635;51.146;17.162;2022-10-29T07:48:15;100729.50;;;14.10;88.03
38806;BME280;25635;51.146;17.162;2022-10-29T07:50:42;100729.73;;;14.23;88.10
38806;BME280;25635;51.146;17.162;2022-10-29T07:53:09;100739.63;;;14.36;87.82
38806;BME280;25635;51.146;17.162;2022-10-29T07:55:36;100735.09;;;14.46;87.49
38806;BME280;25635;51.146;17.162;2022-10-29T07:58:04;100732.78;;;14.56;87.13
38806;BME280;25635;51.146;17.162;2022-10-29T08:00:35;100735.25;;;14.65;87.04
38806;BME280;25635;51.146;17.162;2022-10-29T08:03:03;100736.86;;;14.74;86.71
38806;BME280;25635;51.146;17.162;2022-10-29T08:05:30;100737.60;;;14.82;86.91
38806;BME280;25635;51.146;17.162;2022-10-29T08:07:57;100740.96;;;14.92;86.59
38806;BME280;25635;51.146;17.162;2022-10-29T08:10:24;100748.66;;;15.04;86.68
38806;BME280;25635;51.146;17.162;2022-10-29T08:12:52;100746.68;;;15.15;86.39
38806;BME280;25635;51.146;17.162;2022-10-29T08:15:21;100754.36;;;15.28;86.10
38806;BME280;25635;51.146;17.162;2022-10-29T08:17:49;100752.36;;;15.40;86.16
38806;BME280;25635;51.146;17.162;2022-10-29T08:20:16;100751.69;;;15.52;85.70
38806;BME280;25635;51.146;17.162;2022-10-29T08:22:43;100751.09;;;15.60;85.10
38806;BME280;25635;51.146;17.162;2022-10-29T08:25:10;100748.80;;;15.66;84.93
38806;BME280;25635;51.146;17.162;2022-10-29T08:27:37;100749.08;;;15.74;84.83
38806;BME280;25635;51.146;17.162;2022-10-29T08:30:05;100734.10;;;15.76;84.60
38806;BME280;25635;51.146;17.162;2022-10-29T08:32:32;100744.86;;;15.88;83.87
38806;BME280;25635;51.146;17.162;2022-10-29T08:34:58;100751.70;;;15.97;83.61
38806;BME280;25635;51.146;17.162;2022-10-29T08:37:24;100759.48;;;16.03;83.93
38806;BME280;25635;51.146;17.162;2022-10-29T08:39:50;100759.73;;;16.12;83.81
38806;BME280;25635;51.146;17.162;2022-10-29T08:42:41;100756.98;;;16.16;83.45
38806;BME280;25635;51.146;17.162;2022-10-29T08:45:51;100757.68;;;16.25;82.51
38806;BME280;25635;51.146;17.162;2022-10-29T08:51:02;100759.44;;;16.44;82.93
38806;BME280;25635;51.146;17.162;2022-10-29T08:53:42;100753.88;;;16.56;83.28
38806;BME280;25635;51.146;17.162;2022-10-29T08:56:14;100755.39;;;16.66;82.28
38806;BME280;25635;51.146;17.162;2022-10-29T09:01:35;100758.84;;;16.88;82.37
38806;BME280;25635;51.146;17.162;2022-10-29T09:04:03;100763.83;;;17.00;81.80
38806;BME280;25635;51.146;17.162;2022-10-29T09:09:40;100758.07;;;17.18;80.83
38806;BME280;25635;51.146;17.162;2022-10-29T09:15:33;100762.01;;;17.36;80.59
38806;BME280;25635;51.146;17.162;2022-10-29T09:21:38;100772.38;;;17.59;79.33
38806;BME280;25635;51.146;17.162;2022-10-29T09:24:12;100763.67;;;17.72;79.91
38806;BME280;25635;51.146;17.162;2022-10-29T09:26:57;100762.93;;;17.83;79.94
38806;BME280;25635;51.146;17.162;2022-10-29T09:32:28;100764.75;;;18.11;78.65
38806;BME280;25635;51.146;17.162;2022-10-29T09:35:16;100758.27;;;18.21;78.26
38806;BME280;25635;51.146;17.162;2022-10-29T09:37:47;100760.08;;;18.34;77.92
38806;BME280;25635;51.146;17.162;2022-10-29T09:40:22;100761.37;;;18.49;78.22
38806;BME280;25635;51.146;17.162;2022-10-29T09:42:50;100768.02;;;18.62;76.81
38806;BME280;25635;51.146;17.162;2022-10-29T09:45:22;100763.66;;;18.74;76.87
38806;BME280;25635;51.146;17.162;2022-10-29T09:51:05;100765.50;;;18.99;74.64
38806;BME280;25635;51.146;17.162;2022-10-29T09:53:19;100763.45;;;19.07;74.92
38806;BME280;25635;51.146;17.162;2022-10-29T09:55:46;100761.66;;;19.21;74.91
38806;BME280;25635;51.146;17.162;2022-10-29T09:58:25;100756.95;;;19.29;74.91
38806;BME280;25635;51.146;17.162;2022-10-29T10:00:53;100753.62;;;19.36;74.17
38806;BME280;25635;51.146;17.162;2022-10-29T10:03:42;100753.80;;;19.43;72.62
38806;BME280;25635;51.146;17.162;2022-10-29T10:06:13;100752.72;;;19.49;74.86
38806;BME280;25635;51.146;17.162;2022-10-29T10:09:01;100752.92;;;19.56;73.85
38806;BME280;25635;51.146;17.162;2022-10-29T10:11:36;100747.48;;;19.59;72.41
38806;BME280;25635;51.146;17.162;2022-10-29T10:14:13;100751.29;;;19.63;70.64
38806;BME280;25635;51.146;17.162;2022-10-29T10:16:41;100754.66;;;19.69;72.61
38806;BME280;25635;51.146;17.162;2022-10-29T10:19:22;100752.72;;;19.74;72.91
38806;BME280;25635;51.146;17.162;2022-10-29T10:22:03;100751.58;;;19.81;73.00
38806;BME280;25635;51.146;17.162;2022-10-29T10:24:33;100741.70;;;19.84;71.74
38806;BME280;25635;51.146;17.162;2022-10-29T10:32:38;100741.55;;;19.89;71.66
38806;BME280;25635;51.146;17.162;2022-10-29T10:35:29;100733.92;;;19.92;72.11
38806;BME280;25635;51.146;17.162;2022-10-29T10:37:54;100736.78;;;19.97;71.53
38806;BME280;25635;51.146;17.162;2022-10-29T10:40:23;100728.14;;;20.04;72.41
38806;BME280;25635;51.146;17.162;2022-10-29T10:42:52;100733.60;;;20.11;71.71
38806;BME280;25635;51.146;17.162;2022-10-29T10:45:25;100722.52;;;20.12;70.57
38806;BME280;25635;51.146;17.162;2022-10-29T10:47:55;100725.06;;;20.15;71.24
38806;BME280;25635;51.146;17.162;2022-10-29T10:50:26;100717.63;;;20.13;67.61
38806;BME280;25635;51.146;17.162;2022-10-29T10:52:56;100717.67;;;20.11;70.57
38806;BME280;25635;51.146;17.162;2022-10-29T10:55:33;100721.13;;;20.13;70.48
38806;BME280;25635;51.146;17.162;2022-10-29T10:58:29;100721.13;;;20.13;70.24
38806;BME280;25635;51.146;17.162;2022-10-29T11:01:06;100718.70;;;20.19;69.74
38806;BME280;25635;51.146;17.162;2022-10-29T11:03:45;100719.04;;;20.21;70.14
38806;BME280;25635;51.146;17.162;2022-10-29T11:06:22;100726.48;;;20.23;69.28
38806;BME280;25635;51.146;17.162;2022-10-29T11:14:40;100709.87;;;20.40;69.31
38806;BME280;25635;51.146;17.162;2022-10-29T11:17:20;100708.23;;;20.48;70.27
38806;BME280;25635;51.146;17.162;2022-10-29T11:20:14;100703.64;;;20.63;70.25
38806;BME280;25635;51.146;17.162;2022-10-29T11:26:02;100700.27;;;20.80;66.69
38806;BME280;25635;51.146;17.162;2022-10-29T11:28:42;100708.78;;;20.89;66.93
38806;BME280;25635;51.146;17.162;2022-10-29T11:37:28;100698.21;;;21.08;67.99
38806;BME280;25635;51.146;17.162;2022-10-29T11:39:58;100696.67;;;21.12;66.85
38806;BME280;25635;51.146;17.162;2022-10-29T11:42:27;100698.74;;;21.16;68.25
38806;BME280;25635;51.146;17.162;2022-10-29T11:44:53;100698.15;;;21.19;66.00
38806;BME280;25635;51.146;17.162;2022-10-29T11:50:35;100693.63;;;21.21;64.92
38806;BME280;25635;51.146;17.162;2022-10-29T12:02:03;100684.00;;;21.19;65.20
38806;BME280;25635;51.146;17.162;2022-10-29T12:04:34;100684.91;;;21.18;66.33
38806;BME280;25635;51.146;17.162;2022-10-29T12:13:02;100679.12;;;21.18;65.54
38806;BME280;25635;51.146;17.162;2022-10-29T12:15:46;100672.83;;;21.21;66.57
38806;BME280;25635;51.146;17.162;2022-10-29T12:20:55;100670.75;;;21.28;66.51
38806;BME280;25635;51.146;17.162;2022-10-29T12:23:35;100672.45;;;21.29;65.40
38806;BME280;25635;51.146;17.162;2022-10-29T12:26:16;100676.86;;;21.30;65.43
38806;BME280;25635;51.146;17.162;2022-10-29T12:28:57;100670.33;;;21.26;65.35
38806;BME280;25635;51.146;17.162;2022-10-29T12:34:26;100661.86;;;21.37;65.02
38806;BME280;25635;51.146;17.162;2022-10-29T12:39:36;100664.14;;;21.36;64.76
38806;BME280;25635;51.146;17.162;2022-10-29T12:42:23;100655.69;;;21.37;64.62
38806;BME280;25635;51.146;17.162;2022-10-29T12:50:38;100644.41;;;21.32;65.45
38806;BME280;25635;51.146;17.162;2022-10-29T12:55:50;100652.45;;;21.30;64.91
38806;BME280;25635;51.146;17.162;2022-10-29T13:04:03;100658.84;;;21.26;64.63
38806;BME280;25635;51.146;17.162;2022-10-29T13:06:45;100653.99;;;21.25;64.23
38806;BME280;25635;51.146;17.162;2022-10-29T13:09:25;100648.89;;;21.21;63.98
38806;BME280;25635;51.146;17.162;2022-10-29T13:11:59;100644.80;;;21.22;64.68
38806;BME280;25635;51.146;17.162;2022-10-29T13:14:45;100646.93;;;21.24;64.26
38806;BME280;25635;51.146;17.162;2022-10-29T13:17:36;100650.75;;;21.19;63.48
38806;BME280;25635;51.146;17.162;2022-10-29T13:22:54;100646.89;;;21.05;64.40
38806;BME280;25635;51.146;17.162;2022-10-29T13:30:43;100650.77;;;20.88;64.71
38806;BME280;25635;51.146;17.162;2022-10-29T13:36:04;100655.23;;;20.88;65.85
38806;BME280;25635;51.146;17.162;2022-10-29T13:41:41;100644.59;;;20.88;65.15
38806;BME280;25635;51.146;17.162;2022-10-29T13:44:22;100637.86;;;20.89;65.03
38806;BME280;25635;51.146;17.162;2022-10-29T13:46:59;100633.49;;;20.88;64.92
38806;BME280;25635;51.146;17.162;2022-10-29T13:49:42;100637.54;;;20.87;65.25
38806;BME280;25635;51.146;17.162;2022-10-29T13:54:49;100632.11;;;20.79;64.99
38806;BME280;25635;51.146;17.162;2022-10-29T13:57:51;100629.56;;;20.76;64.85
38806;BME280;25635;51.146;17.162;2022-10-29T14:00:19;100632.11;;;20.69;65.04
38806;BME280;25635;51.146;17.162;2022-10-29T14:05:41;100634.70;;;20.60;65.37
38806;BME280;25635;51.146;17.162;2022-10-29T14:08:19;100629.66;;;20.53;65.69
38806;BME280;25635;51.146;17.162;2022-10-29T14:10:53;100618.24;;;20.51;65.53
38806;BME280;25635;51.146;17.162;2022-10-29T14:13:28;100617.64;;;20.44;65.74
38806;BME280;25635;51.146;17.162;2022-10-29T14:16:01;100631.18;;;20.38;66.02
38806;BME280;25635;51.146;17.162;2022-10-29T14:18:38;100617.73;;;20.31;66.08
38806;BME280;25635;51.146;17.162;2022-10-29T14:23:56;100613.35;;;20.19;66.29
38806;BME280;25635;51.146;17.162;2022-10-29T14:26:26;100614.55;;;20.12;66.46
38806;BME280;25635;51.146;17.162;2022-10-29T14:28:53;100618.30;;;20.07;66.80
38806;BME280;25635;51.146;17.162;2022-10-29T14:31:22;100612.25;;;20.03;67.11
38806;BME280;25635;51.146;17.162;2022-10-29T14:33:55;100615.04;;;20.00;67.33
38806;BME280;25635;51.146;17.162;2022-10-29T14:36:33;100623.00;;;20.00;67.30
38806;BME280;25635;51.146;17.162;2022-10-29T14:41:54;100623.87;;;19.89;67.62
38806;BME280;25635;51.146;17.162;2022-10-29T14:44:31;100626.25;;;19.84;68.02
38806;BME280;25635;51.146;17.162;2022-10-29T14:47:12;100616.77;;;19.79;67.87
38806;BME280;25635;51.146;17.162;2022-10-29T14:49:54;100622.65;;;19.75;68.08
38806;BME280;25635;51.146;17.162;2022-10-29T14:52:30;100626.45;;;19.68;68.16
38806;BME280;25635;51.146;17.162;2022-10-29T14:55:23;100627.48;;;19.64;68.17
38806;BME280;25635;51.146;17.162;2022-10-29T14:58:03;100619.68;;;19.59;68.36
38806;BME280;25635;51.146;17.162;2022-10-29T15:00:34;100621.14;;;19.56;68.62
38806;BME280;25635;51.146;17.162;2022-10-29T15:03:03;100620.52;;;19.50;68.69
38806;BME280;25635;51.146;17.162;2022-10-29T15:05:33;100625.45;;;19.47;68.82
38806;BME280;25635;51.146;17.162;2022-10-29T15:08:15;100630.94;;;19.42;68.92
38806;BME280;25635;51.146;17.162;2022-10-29T15:10:56;100632.05;;;19.37;69.10
38806;BME280;25635;51.146;17.162;2022-10-29T15:16:01;100628.36;;;19.29;69.38
38806;BME280;25635;51.146;17.162;2022-10-29T15:18:31;100634.69;;;19.25;69.39
38806;BME280;25635;51.146;17.162;2022-10-29T15:20:59;100628.68;;;19.20;69.48
38806;BME280;25635;51.146;17.162;2022-10-29T15:23:40;100630.65;;;19.15;69.63
38806;BME280;25635;51.146;17.162;2022-10-29T15:26:14;100622.02;;;19.10;69.77
38806;BME280;25635;51.146;17.162;2022-10-29T15:28:53;100620.44;;;19.04;69.87